sensor_id;sensor_type;location;lat;lon;timestamp;temperature;humidity
70166;SHT30;57541;47.408;18.822;2022-07-23T00:00:23;22.27;68.23
70166;SHT30;57541;47.408;18.822;2022-07-23T00:00:55;22.27;68.07
70166;SHT30;57541;47.408;18.822;2022-07-23T00:01:27;22.36;67.89
70166;SHT30;57541;47.408;18.822;2022-07-23T00:02:00;22.20;68.25
70166;SHT30;57541;47.408;18.822;2022-07-23T00:02:32;22.26;68.19
70166;SHT30;57541;47.408;18.822;2022-07-23T00:03:03;22.21;68.32
70166;SHT30;57541;47.408;18.822;2022-07-23T00:03:35;22.14;68.41
70166;SHT30;57541;47.408;18.822;2022-07-23T00:04:07;22.20;68.40
70166;SHT30;57541;47.408;18.822;2022-07-23T00:04:38;22.19;68.33
70166;SHT30;57541;47.408;18.822;2022-07-23T00:05:11;22.02;68.59
70166;SHT30;57541;47.408;18.822;2022-07-23T00:05:42;21.97;68.83
70166;SHT30;57541;47.408;18.822;2022-07-23T00:06:14;22.05;68.54
70166;SHT30;57541;47.408;18.822;2022-07-23T00:06:46;22.00;68.76
70166;SHT30;57541;47.408;18.822;2022-07-23T00:07:18;22.02;68.67
70166;SHT30;57541;47.408;18.822;2022-07-23T00:07:49;22.02;68.61
70166;SHT30;57541;47.408;18.822;2022-07-23T00:08:21;22.07;68.51
70166;SHT30;57541;47.408;18.822;2022-07-23T00:08:53;22.06;68.44
70166;SHT30;57541;47.408;18.822;2022-07-23T00:09:25;22.05;68.45
70166;SHT30;57541;47.408;18.822;2022-07-23T00:09:56;22.07;68.37
70166;SHT30;57541;47.408;18.822;2022-07-23T00:10:28;22.16;68.26
70166;SHT30;57541;47.408;18.822;2022-07-23T00:11:00;22.09;68.32
70166;SHT30;57541;47.408;18.822;2022-07-23T00:11:32;22.09;68.34
70166;SHT30;57541;47.408;18.822;2022-07-23T00:12:04;22.10;68.37
70166;SHT30;57541;47.408;18.822;2022-07-23T00:12:36;22.02;68.47
70166;SHT30;57541;47.408;18.822;2022-07-23T00:13:22;22.00;68.55
70166;SHT30;57541;47.408;18.822;2022-07-23T00:13:53;21.97;68.67
70166;SHT30;57541;47.408;18.822;2022-07-23T00:14:26;21.99;68.71
70166;SHT30;57541;47.408;18.822;2022-07-23T00:14:58;21.96;68.77
70166;SHT30;57541;47.408;18.822;2022-07-23T00:15:29;21.99;68.64
70166;SHT30;57541;47.408;18.822;2022-07-23T00:16:01;21.97;68.74
70166;SHT30;57541;47.408;18.822;2022-07-23T00:16:33;21.95;68.81
70166;SHT30;57541;47.408;18.822;2022-07-23T00:17:04;21.95;68.87
70166;SHT30;57541;47.408;18.822;2022-07-23T00:17:36;21.92;69.03
70166;SHT30;57541;47.408;18.822;2022-07-23T00:18:08;21.86;69.11
70166;SHT30;57541;47.408;18.822;2022-07-23T00:18:39;21.89;69.00
70166;SHT30;57541;47.408;18.822;2022-07-23T00:19:11;21.82;69.23
70166;SHT30;57541;47.408;18.822;2022-07-23T00:19:43;21.89;69.15
70166;SHT30;57541;47.408;18.822;2022-07-23T00:20:14;21.92;68.94
70166;SHT30;57541;47.408;18.822;2022-07-23T00:20:46;21.93;69.01
70166;SHT30;57541;47.408;18.822;2022-07-23T00:21:18;21.97;68.85
70166;SHT30;57541;47.408;18.822;2022-07-23T00:21:49;21.99;68.82
70166;SHT30;57541;47.408;18.822;2022-07-23T00:22:21;21.99;68.78
70166;SHT30;57541;47.408;18.822;2022-07-23T00:22:54;22.02;68.58
70166;SHT30;57541;47.408;18.822;2022-07-23T00:23:26;22.06;68.46
70166;SHT30;57541;47.408;18.822;2022-07-23T00:24:00;21.96;68.62
70166;SHT30;57541;47.408;18.822;2022-07-23T00:24:31;22.00;68.57
70166;SHT30;57541;47.408;18.822;2022-07-23T00:25:03;22.00;68.51
70166;SHT30;57541;47.408;18.822;2022-07-23T00:25:55;21.96;68.66
70166;SHT30;57541;47.408;18.822;2022-07-23T00:26:27;21.89;68.66
70166;SHT30;57541;47.408;18.822;2022-07-23T00:26:58;21.97;68.58
70166;SHT30;57541;47.408;18.822;2022-07-23T00:27:30;21.96;68.48
70166;SHT30;57541;47.408;18.822;2022-07-23T00:28:02;21.96;68.62
70166;SHT30;57541;47.408;18.822;2022-07-23T00:28:34;21.95;68.53
70166;SHT30;57541;47.408;18.822;2022-07-23T00:29:06;21.97;68.55
70166;SHT30;57541;47.408;18.822;2022-07-23T00:29:38;21.99;68.49
70166;SHT30;57541;47.408;18.822;2022-07-23T00:30:10;21.99;68.53
70166;SHT30;57541;47.408;18.822;2022-07-23T00:30:41;22.02;68.55
70166;SHT30;57541;47.408;18.822;2022-07-23T00:31:13;22.00;68.61
70166;SHT30;57541;47.408;18.822;2022-07-23T00:31:45;21.90;68.91
70166;SHT30;57541;47.408;18.822;2022-07-23T00:32:18;21.93;68.86
70166;SHT30;57541;47.408;18.822;2022-07-23T00:33:10;21.99;68.76
70166;SHT30;57541;47.408;18.822;2022-07-23T00:33:41;22.03;68.61
70166;SHT30;57541;47.408;18.822;2022-07-23T00:34:13;22.03;68.73
70166;SHT30;57541;47.408;18.822;2022-07-23T00:34:45;22.05;68.54
70166;SHT30;57541;47.408;18.822;2022-07-23T00:35:19;22.07;68.52
70166;SHT30;57541;47.408;18.822;2022-07-23T00:35:51;22.09;68.53
70166;SHT30;57541;47.408;18.822;2022-07-23T00:36:23;22.10;68.55
70166;SHT30;57541;47.408;18.822;2022-07-23T00:36:55;22.12;68.59
70166;SHT30;57541;47.408;18.822;2022-07-23T00:37:27;22.14;68.36
70166;SHT30;57541;47.408;18.822;2022-07-23T00:37:59;22.10;68.51
70166;SHT30;57541;47.408;18.822;2022-07-23T00:38:31;22.07;68.53
70166;SHT30;57541;47.408;18.822;2022-07-23T00:39:03;22.10;68.35
70166;SHT30;57541;47.408;18.822;2022-07-23T00:39:35;22.13;68.37
70166;SHT30;57541;47.408;18.822;2022-07-23T00:40:08;22.17;68.34
70166;SHT30;57541;47.408;18.822;2022-07-23T00:40:40;22.24;68.01
70166;SHT30;57541;47.408;18.822;2022-07-23T00:41:12;22.19;68.02
70166;SHT30;57541;47.408;18.822;2022-07-23T00:41:43;22.21;67.94
70166;SHT30;57541;47.408;18.822;2022-07-23T00:42:15;22.19;68.07
70166;SHT30;57541;47.408;18.822;2022-07-23T00:42:47;22.14;68.13
70166;SHT30;57541;47.408;18.822;2022-07-23T00:43:20;22.14;68.32
70166;SHT30;57541;47.408;18.822;2022-07-23T00:43:52;22.10;68.49
70166;SHT30;57541;47.408;18.822;2022-07-23T00:44:26;22.12;68.53
70166;SHT30;57541;47.408;18.822;2022-07-23T00:44:58;22.00;68.91
70166;SHT30;57541;47.408;18.822;2022-07-23T00:45:30;22.05;68.85
70166;SHT30;57541;47.408;18.822;2022-07-23T00:46:02;21.97;69.08
70166;SHT30;57541;47.408;18.822;2022-07-23T00:46:33;21.95;69.14
70166;SHT30;57541;47.408;18.822;2022-07-23T00:47:05;21.93;69.09
70166;SHT30;57541;47.408;18.822;2022-07-23T00:47:37;21.99;69.02
70166;SHT30;57541;47.408;18.822;2022-07-23T00:48:08;21.96;69.06
70166;SHT30;57541;47.408;18.822;2022-07-23T00:48:40;21.86;69.40
70166;SHT30;57541;47.408;18.822;2022-07-23T00:49:12;21.90;69.31
70166;SHT30;57541;47.408;18.822;2022-07-23T00:49:43;21.90;69.21
70166;SHT30;57541;47.408;18.822;2022-07-23T00:50:15;21.88;69.39
70166;SHT30;57541;47.408;18.822;2022-07-23T00:50:47;21.82;69.49
70166;SHT30;57541;47.408;18.822;2022-07-23T00:51:18;21.78;69.71
70166;SHT30;57541;47.408;18.822;2022-07-23T00:51:50;21.78;69.65
70166;SHT30;57541;47.408;18.822;2022-07-23T00:52:22;21.78;69.76
70166;SHT30;57541;47.408;18.822;2022-07-23T00:52:54;21.74;69.77
70166;SHT30;57541;47.408;18.822;2022-07-23T00:53:26;21.74;69.93
70166;SHT30;57541;47.408;18.822;2022-07-23T00:53:59;21.69;69.92
70166;SHT30;57541;47.408;18.822;2022-07-23T00:54:30;21.63;70.10
70166;SHT30;57541;47.408;18.822;2022-07-23T00:55:04;21.62;70.23
70166;SHT30;57541;47.408;18.822;2022-07-23T00:55:36;21.62;70.44
70166;SHT30;57541;47.408;18.822;2022-07-23T00:56:10;21.66;70.45
70166;SHT30;57541;47.408;18.822;2022-07-23T00:56:43;21.51;70.55
70166;SHT30;57541;47.408;18.822;2022-07-23T00:57:16;21.47;70.87
70166;SHT30;57541;47.408;18.822;2022-07-23T00:57:47;21.51;70.81
70166;SHT30;57541;47.408;18.822;2022-07-23T00:58:19;21.45;71.18
70166;SHT30;57541;47.408;18.822;2022-07-23T00:58:51;21.42;71.20
70166;SHT30;57541;47.408;18.822;2022-07-23T00:59:23;21.42;71.08
70166;SHT30;57541;47.408;18.822;2022-07-23T00:59:54;21.42;71.09
70166;SHT30;57541;47.408;18.822;2022-07-23T01:00:26;21.39;71.28
70166;SHT30;57541;47.408;18.822;2022-07-23T01:00:58;21.35;71.28
70166;SHT30;57541;47.408;18.822;2022-07-23T01:01:30;21.38;71.51
70166;SHT30;57541;47.408;18.822;2022-07-23T01:02:02;21.31;71.47
70166;SHT30;57541;47.408;18.822;2022-07-23T01:02:33;21.23;71.71
70166;SHT30;57541;47.408;18.822;2022-07-23T01:03:05;21.24;71.87
70166;SHT30;57541;47.408;18.822;2022-07-23T01:03:37;21.26;71.79
70166;SHT30;57541;47.408;18.822;2022-07-23T01:04:08;21.23;71.91
70166;SHT30;57541;47.408;18.822;2022-07-23T01:04:40;21.27;71.78
70166;SHT30;57541;47.408;18.822;2022-07-23T01:05:12;21.04;72.30
70166;SHT30;57541;47.408;18.822;2022-07-23T01:05:44;21.08;72.52
70166;SHT30;57541;47.408;18.822;2022-07-23T01:06:16;21.15;72.34
70166;SHT30;57541;47.408;18.822;2022-07-23T01:06:48;21.17;72.25
70166;SHT30;57541;47.408;18.822;2022-07-23T01:07:20;21.21;72.26
70166;SHT30;57541;47.408;18.822;2022-07-23T01:07:52;21.21;72.25
70166;SHT30;57541;47.408;18.822;2022-07-23T01:08:26;21.28;72.22
70166;SHT30;57541;47.408;18.822;2022-07-23T01:08:58;21.30;72.24
70166;SHT30;57541;47.408;18.822;2022-07-23T01:09:31;21.31;72.25
70166;SHT30;57541;47.408;18.822;2022-07-23T01:10:03;21.37;72.17
70166;SHT30;57541;47.408;18.822;2022-07-23T01:10:37;21.37;72.33
70166;SHT30;57541;47.408;18.822;2022-07-23T01:11:09;21.41;72.50
70166;SHT30;57541;47.408;18.822;2022-07-23T01:11:41;21.41;72.74
70166;SHT30;57541;47.408;18.822;2022-07-23T01:12:13;21.48;72.45
70166;SHT30;57541;47.408;18.822;2022-07-23T01:12:44;21.49;73.22
70166;SHT30;57541;47.408;18.822;2022-07-23T01:13:16;21.51;74.07
70166;SHT30;57541;47.408;18.822;2022-07-23T01:13:47;21.55;74.04
70166;SHT30;57541;47.408;18.822;2022-07-23T01:14:19;21.55;74.10
70166;SHT30;57541;47.408;18.822;2022-07-23T01:14:58;21.62;74.08
70166;SHT30;57541;47.408;18.822;2022-07-23T01:15:30;21.62;74.00
70166;SHT30;57541;47.408;18.822;2022-07-23T01:16:02;21.62;74.13
70166;SHT30;57541;47.408;18.822;2022-07-23T01:16:34;21.55;74.49
70166;SHT30;57541;47.408;18.822;2022-07-23T01:17:06;21.57;74.47
70166;SHT30;57541;47.408;18.822;2022-07-23T01:17:37;21.62;74.45
70166;SHT30;57541;47.408;18.822;2022-07-23T01:18:09;21.58;74.54
70166;SHT30;57541;47.408;18.822;2022-07-23T01:18:40;21.59;74.52
70166;SHT30;57541;47.408;18.822;2022-07-23T01:19:13;21.63;74.22
70166;SHT30;57541;47.408;18.822;2022-07-23T01:19:45;21.66;74.10
70166;SHT30;57541;47.408;18.822;2022-07-23T01:20:17;21.72;73.71
70166;SHT30;57541;47.408;18.822;2022-07-23T01:20:48;21.74;73.77
70166;SHT30;57541;47.408;18.822;2022-07-23T01:21:21;21.69;74.00
70166;SHT30;57541;47.408;18.822;2022-07-23T01:21:53;21.68;74.17
70166;SHT30;57541;47.408;18.822;2022-07-23T01:22:29;21.66;74.29
70166;SHT30;57541;47.408;18.822;2022-07-23T01:23:01;21.66;74.26
70166;SHT30;57541;47.408;18.822;2022-07-23T01:23:32;21.68;74.29
70166;SHT30;57541;47.408;18.822;2022-07-23T01:24:05;21.62;74.29
70166;SHT30;57541;47.408;18.822;2022-07-23T01:24:36;21.52;74.43
70166;SHT30;57541;47.408;18.822;2022-07-23T01:25:08;21.49;74.61
70166;SHT30;57541;47.408;18.822;2022-07-23T01:25:52;21.55;74.37
70166;SHT30;57541;47.408;18.822;2022-07-23T01:26:24;21.58;74.09
70166;SHT30;57541;47.408;18.822;2022-07-23T01:26:55;21.51;73.79
70166;SHT30;57541;47.408;18.822;2022-07-23T01:27:27;21.47;73.83
70166;SHT30;57541;47.408;18.822;2022-07-23T01:27:59;21.38;74.10
70166;SHT30;57541;47.408;18.822;2022-07-23T01:28:30;21.34;74.25
70166;SHT30;57541;47.408;18.822;2022-07-23T01:29:02;21.41;74.33
70166;SHT30;57541;47.408;18.822;2022-07-23T01:29:34;21.44;74.25
70166;SHT30;57541;47.408;18.822;2022-07-23T01:30:06;21.45;74.33
70166;SHT30;57541;47.408;18.822;2022-07-23T01:30:38;21.47;74.63
70166;SHT30;57541;47.408;18.822;2022-07-23T01:31:09;21.47;74.49
70166;SHT30;57541;47.408;18.822;2022-07-23T01:31:42;21.47;74.47
70166;SHT30;57541;47.408;18.822;2022-07-23T01:32:14;21.49;74.58
70166;SHT30;57541;47.408;18.822;2022-07-23T01:32:46;21.55;74.50
70166;SHT30;57541;47.408;18.822;2022-07-23T01:33:17;21.57;74.50
70166;SHT30;57541;47.408;18.822;2022-07-23T01:33:49;21.58;74.52
70166;SHT30;57541;47.408;18.822;2022-07-23T01:34:21;21.54;74.64
70166;SHT30;57541;47.408;18.822;2022-07-23T01:34:52;21.55;74.44
70166;SHT30;57541;47.408;18.822;2022-07-23T01:35:24;21.54;74.54
70166;SHT30;57541;47.408;18.822;2022-07-23T01:35:55;21.51;74.75
70166;SHT30;57541;47.408;18.822;2022-07-23T01:36:27;21.49;74.66
70166;SHT30;57541;47.408;18.822;2022-07-23T01:36:59;21.48;74.49
70166;SHT30;57541;47.408;18.822;2022-07-23T01:37:30;21.45;74.59
70166;SHT30;57541;47.408;18.822;2022-07-23T01:38:02;21.51;74.53
70166;SHT30;57541;47.408;18.822;2022-07-23T01:38:34;21.48;74.49
70166;SHT30;57541;47.408;18.822;2022-07-23T01:39:06;21.48;74.77
70166;SHT30;57541;47.408;18.822;2022-07-23T01:39:38;21.57;74.53
70166;SHT30;57541;47.408;18.822;2022-07-23T01:40:10;21.45;74.80
70166;SHT30;57541;47.408;18.822;2022-07-23T01:40:41;21.45;74.83
70166;SHT30;57541;47.408;18.822;2022-07-23T01:41:13;21.48;74.65
70166;SHT30;57541;47.408;18.822;2022-07-23T01:41:45;21.55;74.51
70166;SHT30;57541;47.408;18.822;2022-07-23T01:42:21;21.51;74.73
70166;SHT30;57541;47.408;18.822;2022-07-23T01:42:53;21.49;74.74
70166;SHT30;57541;47.408;18.822;2022-07-23T01:43:25;21.47;74.90
70166;SHT30;57541;47.408;18.822;2022-07-23T01:43:58;21.44;75.12
70166;SHT30;57541;47.408;18.822;2022-07-23T01:44:29;21.44;74.90
70166;SHT30;57541;47.408;18.822;2022-07-23T01:45:02;21.45;74.78
70166;SHT30;57541;47.408;18.822;2022-07-23T01:45:34;21.41;74.73
70166;SHT30;57541;47.408;18.822;2022-07-23T01:46:05;21.41;74.59
70166;SHT30;57541;47.408;18.822;2022-07-23T01:46:38;21.37;74.20
70166;SHT30;57541;47.408;18.822;2022-07-23T01:47:10;21.37;74.36
70166;SHT30;57541;47.408;18.822;2022-07-23T01:47:41;21.38;74.09
70166;SHT30;57541;47.408;18.822;2022-07-23T01:48:13;21.39;73.92
70166;SHT30;57541;47.408;18.822;2022-07-23T01:48:45;21.32;73.41
70166;SHT30;57541;47.408;18.822;2022-07-23T01:49:16;21.24;73.73
70166;SHT30;57541;47.408;18.822;2022-07-23T01:49:48;21.28;73.28
70166;SHT30;57541;47.408;18.822;2022-07-23T01:50:20;21.28;73.25
70166;SHT30;57541;47.408;18.822;2022-07-23T01:50:51;21.27;73.61
70166;SHT30;57541;47.408;18.822;2022-07-23T01:51:23;21.23;73.76
70166;SHT30;57541;47.408;18.822;2022-07-23T01:51:55;21.26;73.50
70166;SHT30;57541;47.408;18.822;2022-07-23T01:52:37;21.10;73.94
70166;SHT30;57541;47.408;18.822;2022-07-23T01:53:09;21.15;74.08
70166;SHT30;57541;47.408;18.822;2022-07-23T01:53:41;21.14;74.47
70166;SHT30;57541;47.408;18.822;2022-07-23T01:54:12;21.14;74.54
70166;SHT30;57541;47.408;18.822;2022-07-23T01:54:44;21.18;74.42
70166;SHT30;57541;47.408;18.822;2022-07-23T01:55:15;21.18;74.03
70166;SHT30;57541;47.408;18.822;2022-07-23T01:55:49;21.17;73.90
70166;SHT30;57541;47.408;18.822;2022-07-23T01:56:20;21.20;73.76
70166;SHT30;57541;47.408;18.822;2022-07-23T01:56:52;21.17;73.63
70166;SHT30;57541;47.408;18.822;2022-07-23T01:57:24;21.14;73.55
70166;SHT30;57541;47.408;18.822;2022-07-23T01:57:55;21.14;73.65
70166;SHT30;57541;47.408;18.822;2022-07-23T01:58:27;21.10;73.63
70166;SHT30;57541;47.408;18.822;2022-07-23T01:58:59;21.10;73.92
70166;SHT30;57541;47.408;18.822;2022-07-23T01:59:31;21.12;73.90
70166;SHT30;57541;47.408;18.822;2022-07-23T02:00:03;21.12;73.94
70166;SHT30;57541;47.408;18.822;2022-07-23T02:01:15;21.20;74.14
70166;SHT30;57541;47.408;18.822;2022-07-23T02:01:47;21.15;74.27
70166;SHT30;57541;47.408;18.822;2022-07-23T02:02:19;21.14;74.15
70166;SHT30;57541;47.408;18.822;2022-07-23T02:02:50;21.17;74.16
70166;SHT30;57541;47.408;18.822;2022-07-23T02:03:22;21.08;74.09
70166;SHT30;57541;47.408;18.822;2022-07-23T02:03:54;21.06;74.03
70166;SHT30;57541;47.408;18.822;2022-07-23T02:04:25;21.07;73.97
70166;SHT30;57541;47.408;18.822;2022-07-23T02:04:57;20.93;74.27
70166;SHT30;57541;47.408;18.822;2022-07-23T02:05:29;20.90;74.45
70166;SHT30;57541;47.408;18.822;2022-07-23T02:06:01;20.81;74.65
70166;SHT30;57541;47.408;18.822;2022-07-23T02:06:33;20.79;74.64
70166;SHT30;57541;47.408;18.822;2022-07-23T02:07:05;20.83;74.62
70166;SHT30;57541;47.408;18.822;2022-07-23T02:07:36;20.87;74.43
70166;SHT30;57541;47.408;18.822;2022-07-23T02:08:08;20.84;74.54
70166;SHT30;57541;47.408;18.822;2022-07-23T02:08:39;20.80;74.49
70166;SHT30;57541;47.408;18.822;2022-07-23T02:09:11;20.76;74.54
70166;SHT30;57541;47.408;18.822;2022-07-23T02:09:43;20.80;74.61
70166;SHT30;57541;47.408;18.822;2022-07-23T02:10:14;20.86;74.54
70166;SHT30;57541;47.408;18.822;2022-07-23T02:10:46;20.80;74.67
70166;SHT30;57541;47.408;18.822;2022-07-23T02:11:18;20.80;74.71
70166;SHT30;57541;47.408;18.822;2022-07-23T02:11:50;20.80;74.71
70166;SHT30;57541;47.408;18.822;2022-07-23T02:12:21;20.83;74.60
70166;SHT30;57541;47.408;18.822;2022-07-23T02:12:53;20.79;74.81
70166;SHT30;57541;47.408;18.822;2022-07-23T02:13:25;20.83;74.79
70166;SHT30;57541;47.408;18.822;2022-07-23T02:14:01;20.86;74.66
70166;SHT30;57541;47.408;18.822;2022-07-23T02:14:33;20.89;74.57
70166;SHT30;57541;47.408;18.822;2022-07-23T02:15:05;20.93;74.70
70166;SHT30;57541;47.408;18.822;2022-07-23T02:15:40;20.91;74.76
70166;SHT30;57541;47.408;18.822;2022-07-23T02:16:11;20.91;74.49
70166;SHT30;57541;47.408;18.822;2022-07-23T02:16:43;20.97;74.38
70166;SHT30;57541;47.408;18.822;2022-07-23T02:17:15;20.93;74.45
70166;SHT30;57541;47.408;18.822;2022-07-23T02:17:46;20.87;74.75
70166;SHT30;57541;47.408;18.822;2022-07-23T02:18:18;20.86;74.69
70166;SHT30;57541;47.408;18.822;2022-07-23T02:18:50;20.90;74.63
70166;SHT30;57541;47.408;18.822;2022-07-23T02:19:22;20.89;74.65
70166;SHT30;57541;47.408;18.822;2022-07-23T02:19:54;20.89;74.84
70166;SHT30;57541;47.408;18.822;2022-07-23T02:20:25;20.87;74.82
70166;SHT30;57541;47.408;18.822;2022-07-23T02:20:57;20.93;74.71
70166;SHT30;57541;47.408;18.822;2022-07-23T02:21:29;20.93;74.65
70166;SHT30;57541;47.408;18.822;2022-07-23T02:22:00;20.94;74.55
70166;SHT30;57541;47.408;18.822;2022-07-23T02:22:32;20.96;74.55
70166;SHT30;57541;47.408;18.822;2022-07-23T02:23:04;21.00;74.36
70166;SHT30;57541;47.408;18.822;2022-07-23T02:23:35;21.03;74.31
70166;SHT30;57541;47.408;18.822;2022-07-23T02:24:07;20.94;74.54
70166;SHT30;57541;47.408;18.822;2022-07-23T02:24:39;20.93;74.47
70166;SHT30;57541;47.408;18.822;2022-07-23T02:25:11;20.83;74.62
70166;SHT30;57541;47.408;18.822;2022-07-23T02:25:42;20.86;74.71
70166;SHT30;57541;47.408;18.822;2022-07-23T02:26:14;20.93;74.46
70166;SHT30;57541;47.408;18.822;2022-07-23T02:26:51;20.97;74.43
70166;SHT30;57541;47.408;18.822;2022-07-23T02:27:22;21.00;74.30
70166;SHT30;57541;47.408;18.822;2022-07-23T02:27:54;21.01;74.37
70166;SHT30;57541;47.408;18.822;2022-07-23T02:28:26;21.04;74.23
70166;SHT30;57541;47.408;18.822;2022-07-23T02:28:57;20.96;74.52
70166;SHT30;57541;47.408;18.822;2022-07-23T02:29:29;20.87;74.75
70166;SHT30;57541;47.408;18.822;2022-07-23T02:30:02;20.94;74.47
70166;SHT30;57541;47.408;18.822;2022-07-23T02:30:34;20.96;74.55
70166;SHT30;57541;47.408;18.822;2022-07-23T02:31:05;21.04;74.42
70166;SHT30;57541;47.408;18.822;2022-07-23T02:31:38;21.08;74.39
70166;SHT30;57541;47.408;18.822;2022-07-23T02:32:09;21.17;74.31
70166;SHT30;57541;47.408;18.822;2022-07-23T02:32:41;21.20;74.01
70166;SHT30;57541;47.408;18.822;2022-07-23T02:33:13;21.23;73.94
70166;SHT30;57541;47.408;18.822;2022-07-23T02:33:44;21.18;74.11
70166;SHT30;57541;47.408;18.822;2022-07-23T02:34:16;21.14;74.04
70166;SHT30;57541;47.408;18.822;2022-07-23T02:34:48;21.15;74.15
70166;SHT30;57541;47.408;18.822;2022-07-23T02:35:19;21.15;74.03
70166;SHT30;57541;47.408;18.822;2022-07-23T02:35:51;21.15;73.98
70166;SHT30;57541;47.408;18.822;2022-07-23T02:36:23;21.15;74.01
70166;SHT30;57541;47.408;18.822;2022-07-23T02:36:55;21.12;73.92
70166;SHT30;57541;47.408;18.822;2022-07-23T02:37:27;21.11;73.91
70166;SHT30;57541;47.408;18.822;2022-07-23T02:37:58;21.07;73.84
70166;SHT30;57541;47.408;18.822;2022-07-23T02:38:30;21.01;74.13
70166;SHT30;57541;47.408;18.822;2022-07-23T02:39:01;21.07;74.02
70166;SHT30;57541;47.408;18.822;2022-07-23T02:39:35;21.08;73.92
70166;SHT30;57541;47.408;18.822;2022-07-23T02:40:07;21.00;74.23
70166;SHT30;57541;47.408;18.822;2022-07-23T02:40:39;20.99;74.26
70166;SHT30;57541;47.408;18.822;2022-07-23T02:41:10;21.03;74.14
70166;SHT30;57541;47.408;18.822;2022-07-23T02:41:42;21.03;73.98
70166;SHT30;57541;47.408;18.822;2022-07-23T02:42:14;21.03;74.11
70166;SHT30;57541;47.408;18.822;2022-07-23T02:42:46;21.00;74.15
70166;SHT30;57541;47.408;18.822;2022-07-23T02:43:18;21.01;74.01
70166;SHT30;57541;47.408;18.822;2022-07-23T02:43:49;21.01;73.94
70166;SHT30;57541;47.408;18.822;2022-07-23T02:44:21;21.04;73.68
70166;SHT30;57541;47.408;18.822;2022-07-23T02:44:53;21.03;73.88
70166;SHT30;57541;47.408;18.822;2022-07-23T02:45:24;21.03;73.80
70166;SHT30;57541;47.408;18.822;2022-07-23T02:45:56;21.06;73.66
70166;SHT30;57541;47.408;18.822;2022-07-23T02:46:28;20.99;73.89
70166;SHT30;57541;47.408;18.822;2022-07-23T02:46:59;20.99;73.97
70166;SHT30;57541;47.408;18.822;2022-07-23T02:47:31;20.99;73.95
70166;SHT30;57541;47.408;18.822;2022-07-23T02:48:03;20.93;74.00
70166;SHT30;57541;47.408;18.822;2022-07-23T02:48:35;20.93;74.05
70166;SHT30;57541;47.408;18.822;2022-07-23T02:49:07;20.89;74.11
70166;SHT30;57541;47.408;18.822;2022-07-23T02:49:38;20.86;74.21
70166;SHT30;57541;47.408;18.822;2022-07-23T02:50:10;20.84;74.24
70166;SHT30;57541;47.408;18.822;2022-07-23T02:50:43;20.79;74.37
70166;SHT30;57541;47.408;18.822;2022-07-23T02:51:15;20.75;74.47
70166;SHT30;57541;47.408;18.822;2022-07-23T02:51:46;20.69;74.38
70166;SHT30;57541;47.408;18.822;2022-07-23T02:52:18;20.66;74.50
70166;SHT30;57541;47.408;18.822;2022-07-23T02:52:49;20.60;74.79
70166;SHT30;57541;47.408;18.822;2022-07-23T02:53:22;20.56;74.78
70166;SHT30;57541;47.408;18.822;2022-07-23T02:53:53;20.38;75.45
70166;SHT30;57541;47.408;18.822;2022-07-23T02:54:25;20.38;75.39
70166;SHT30;57541;47.408;18.822;2022-07-23T02:54:56;20.39;75.42
70166;SHT30;57541;47.408;18.822;2022-07-23T02:55:28;20.43;75.21
70166;SHT30;57541;47.408;18.822;2022-07-23T02:56:00;20.46;75.13
70166;SHT30;57541;47.408;18.822;2022-07-23T02:56:31;20.32;75.48
70166;SHT30;57541;47.408;18.822;2022-07-23T02:57:03;20.36;75.53
70166;SHT30;57541;47.408;18.822;2022-07-23T02:57:35;20.39;75.43
70166;SHT30;57541;47.408;18.822;2022-07-23T02:58:06;20.38;75.60
70166;SHT30;57541;47.408;18.822;2022-07-23T02:58:38;20.36;75.51
70166;SHT30;57541;47.408;18.822;2022-07-23T02:59:10;20.41;75.36
70166;SHT30;57541;47.408;18.822;2022-07-23T02:59:42;20.32;75.53
70166;SHT30;57541;47.408;18.822;2022-07-23T03:00:13;20.35;75.65
70166;SHT30;57541;47.408;18.822;2022-07-23T03:00:45;20.29;75.81
70166;SHT30;57541;47.408;18.822;2022-07-23T03:01:17;20.28;76.07
70166;SHT30;57541;47.408;18.822;2022-07-23T03:01:51;20.26;76.01
70166;SHT30;57541;47.408;18.822;2022-07-23T03:02:23;20.18;76.53
70166;SHT30;57541;47.408;18.822;2022-07-23T03:02:54;20.24;75.95
70166;SHT30;57541;47.408;18.822;2022-07-23T03:03:26;20.14;76.37
70166;SHT30;57541;47.408;18.822;2022-07-23T03:04:00;20.21;76.13
70166;SHT30;57541;47.408;18.822;2022-07-23T03:04:33;20.14;76.38
70166;SHT30;57541;47.408;18.822;2022-07-23T03:05:06;20.14;76.58
70166;SHT30;57541;47.408;18.822;2022-07-23T03:05:37;20.12;76.54
70166;SHT30;57541;47.408;18.822;2022-07-23T03:06:09;20.18;76.45
70166;SHT30;57541;47.408;18.822;2022-07-23T03:06:41;20.18;76.46
70166;SHT30;57541;47.408;18.822;2022-07-23T03:07:12;20.21;76.35
70166;SHT30;57541;47.408;18.822;2022-07-23T03:07:44;20.18;76.46
70166;SHT30;57541;47.408;18.822;2022-07-23T03:08:15;20.17;76.48
70166;SHT30;57541;47.408;18.822;2022-07-23T03:08:47;20.18;76.45
70166;SHT30;57541;47.408;18.822;2022-07-23T03:09:19;20.22;76.31
70166;SHT30;57541;47.408;18.822;2022-07-23T03:09:50;20.26;76.24
70166;SHT30;57541;47.408;18.822;2022-07-23T03:10:22;20.18;76.37
70166;SHT30;57541;47.408;18.822;2022-07-23T03:10:53;20.22;76.39
70166;SHT30;57541;47.408;18.822;2022-07-23T03:11:25;20.24;76.30
70166;SHT30;57541;47.408;18.822;2022-07-23T03:11:57;20.25;76.28
70166;SHT30;57541;47.408;18.822;2022-07-23T03:12:28;20.24;76.25
70166;SHT30;57541;47.408;18.822;2022-07-23T03:13:00;20.26;76.21
70166;SHT30;57541;47.408;18.822;2022-07-23T03:13:31;20.25;76.21
70166;SHT30;57541;47.408;18.822;2022-07-23T03:14:06;20.29;76.15
70166;SHT30;57541;47.408;18.822;2022-07-23T03:14:39;20.28;76.21
70166;SHT30;57541;47.408;18.822;2022-07-23T03:15:10;20.31;76.17
70166;SHT30;57541;47.408;18.822;2022-07-23T03:15:42;20.29;76.25
70166;SHT30;57541;47.408;18.822;2022-07-23T03:16:13;20.24;76.32
70166;SHT30;57541;47.408;18.822;2022-07-23T03:16:45;20.31;76.26
70166;SHT30;57541;47.408;18.822;2022-07-23T03:17:17;20.28;76.33
70166;SHT30;57541;47.408;18.822;2022-07-23T03:17:49;20.28;76.36
70166;SHT30;57541;47.408;18.822;2022-07-23T03:18:20;20.29;76.34
70166;SHT30;57541;47.408;18.822;2022-07-23T03:18:52;20.29;76.37
70166;SHT30;57541;47.408;18.822;2022-07-23T03:19:24;20.25;76.42
70166;SHT30;57541;47.408;18.822;2022-07-23T03:19:55;20.24;76.48
70166;SHT30;57541;47.408;18.822;2022-07-23T03:20:27;20.29;76.30